Time;durP1;ratioP1;P1;durP2;ratioP2;P2;SDS_P1;SDS_P2;PMS_P1;PMS_P2;Temp;Humidity;BMP_temperature;BMP_pressure;BME280_temperature;BME280_humidity;BME280_pressure;Samples;Min_cycle;Max_cycle;Signal;HPM_P1;HPM_P2
2023/05/09 00:00:56;;;;;;;2.97;2.07;;;;;;;8.97;100.00;99757.00;5091661;28;20213;-74
2023/05/09 00:03:23;;;;;;;2.43;1.67;;;;;;;8.94;100.00;99751.25;5091783;28;20218;-73
2023/05/09 00:05:50;;;;;;;3.43;1.80;;;;;;;8.86;100.00;99758.50;5091755;28;20233;-74
2023/05/09 00:08:17;;;;;;;3.53;2.10;;;;;;;8.81;100.00;99751.94;5091968;28;20229;-74
2023/05/09 00:10:43;;;;;;;3.13;2.60;;;;;;;8.71;100.00;99750.78;5091724;28;20221;-73
2023/05/09 00:13:12;;;;;;;2.83;1.67;;;;;;;8.89;100.00;99750.69;5092002;28;20230;-74
2023/05/09 00:15:39;;;;;;;1.87;1.77;;;;;;;8.96;100.00;99750.28;5091925;28;20208;-74
2023/05/09 00:18:06;;;;;;;2.93;1.77;;;;;;;8.98;100.00;99737.41;5091353;28;20228;-74
2023/05/09 00:20:33;;;;;;;1.30;1.20;;;;;;;9.03;100.00;99740.53;5091472;28;20194;-73
2023/05/09 00:23:00;;;;;;;1.47;1.10;;;;;;;8.69;100.00;99737.28;5091757;28;20217;-73
2023/05/09 00:25:27;;;;;;;2.03;1.27;;;;;;;8.79;100.00;99743.53;5091466;28;20233;-74
2023/05/09 00:27:54;;;;;;;2.07;1.50;;;;;;;8.71;100.00;99740.56;5091477;28;20574;-73
2023/05/09 00:30:22;;;;;;;1.73;1.50;;;;;;;8.78;100.00;99741.88;5092015;28;20588;-74
2023/05/09 00:32:49;;;;;;;1.97;1.80;;;;;;;8.79;100.00;99735.06;5091449;28;20229;-73
2023/05/09 00:35:16;;;;;;;2.57;1.87;;;;;;;8.70;100.00;99744.03;5091449;28;20216;-73
2023/05/09 00:37:43;;;;;;;2.30;1.30;;;;;;;8.71;100.00;99727.81;5091091;28;20233;-73
2023/05/09 00:40:10;;;;;;;2.67;2.03;;;;;;;8.67;100.00;99725.50;5091461;28;20693;-73
2023/05/09 00:42:37;;;;;;;1.97;1.40;;;;;;;8.78;100.00;99731.69;5090967;28;20205;-73
2023/05/09 00:45:05;;;;;;;1.37;1.27;;;;;;;8.72;100.00;99726.09;5091454;28;20655;-73
2023/05/09 00:47:34;;;;;;;7.53;1.97;;;;;;;8.65;100.00;99725.63;5091106;28;20630;-73
2023/05/09 00:50:02;;;;;;;4.80;1.67;;;;;;;8.67;100.00;99739.09;5091151;28;20590;-73
2023/05/09 00:52:30;;;;;;;2.10;1.90;;;;;;;8.66;100.00;99737.44;5090670;28;20190;-73
2023/05/09 00:54:57;;;;;;;1.47;1.37;;;;;;;8.58;100.00;99739.56;5090880;28;20191;-73
2023/05/09 00:57:23;;;;;;;2.53;1.83;;;;;;;8.67;100.00;99734.00;5090930;28;20216;-74
2023/05/09 00:59:50;;;;;;;2.93;1.83;;;;;;;8.60;100.00;99735.22;5091338;28;20217;-73
2023/05/09 01:02:18;;;;;;;1.83;1.33;;;;;;;8.64;100.00;99730.78;5090679;28;20205;-73
2023/05/09 01:04:47;;;;;;;1.40;1.30;;;;;;;8.63;100.00;99732.50;5090708;28;20248;-73
2023/05/09 01:07:30;;;;;;;2.20;1.77;;;;;;;8.64;100.00;99731.63;5090499;28;20197;-73
2023/05/09 01:10:03;;;;;;;1.57;1.37;;;;;;;8.46;100.00;99737.69;5091118;28;20202;-73
2023/05/09 01:12:37;;;;;;;2.30;1.67;;;;;;;8.49;100.00;99740.88;5089936;28;20262;-73
2023/05/09 01:15:11;;;;;;;2.17;1.37;;;;;;;8.46;100.00;99742.78;5090501;28;20310;-73
2023/05/09 01:17:47;;;;;;;1.60;1.43;;;;;;;8.46;100.00;99741.06;5090536;28;20194;-73
2023/05/09 01:20:23;;;;;;;2.23;1.77;;;;;;;8.48;100.00;99738.44;5090984;28;20209;-73
2023/05/09 01:23:00;;;;;;;0.87;0.87;;;;;;;8.43;100.00;99737.84;5090509;28;20217;-74
2023/05/09 01:25:49;;;;;;;1.83;1.30;;;;;;;8.40;100.00;99736.28;5090360;28;20328;-72
2023/05/09 01:28:31;;;;;;;1.73;1.60;;;;;;;8.33;100.00;99750.22;5090300;28;20438;-73
2023/05/09 01:30:59;;;;;;;1.47;1.37;;;;;;;8.39;100.00;99740.56;5090277;28;20196;-73
2023/05/09 01:33:28;;;;;;;1.60;1.50;;;;;;;8.24;100.00;99743.88;5090374;28;20225;-73
2023/05/09 01:36:02;;;;;;;3.90;2.27;;;;;;;8.37;100.00;99742.34;5090087;28;20205;-73
2023/05/09 01:38:31;;;;;;;2.80;1.87;;;;;;;8.34;100.00;99732.31;5090178;28;20218;-72
2023/05/09 01:40:59;;;;;;;2.40;1.53;;;;;;;8.38;100.00;99743.19;5090148;28;20202;-73
2023/05/09 01:43:30;;;;;;;1.60;1.33;;;;;;;8.49;100.00;99745.16;5090340;28;20586;-73
2023/05/09 01:45:59;;;;;;;2.73;2.00;;;;;;;8.48;100.00;99754.53;5089995;28;20234;-73
2023/05/09 01:48:29;;;;;;;2.13;1.50;;;;;;;8.42;100.00;99754.06;5089925;28;20217;-73
2023/05/09 01:50:58;;;;;;;2.17;1.90;;;;;;;8.32;100.00;99754.50;5090073;28;20218;-73
2023/05/09 01:53:28;;;;;;;3.60;1.50;;;;;;;8.23;100.00;99759.25;5089934;28;20678;-73
2023/05/09 01:55:56;;;;;;;1.87;1.57;;;;;;;8.27;100.00;99756.47;5089719;28;20594;-73
2023/05/09 01:58:25;;;;;;;2.17;1.50;;;;;;;8.32;100.00;99759.59;5089785;28;20221;-73
2023/05/09 02:00:53;;;;;;;2.13;1.43;;;;;;;8.34;100.00;99757.78;5089850;28;20377;-73
2023/05/09 02:03:22;;;;;;;1.63;1.40;;;;;;;8.31;100.00;99762.22;5089952;28;20694;-73
2023/05/09 02:05:50;;;;;;;4.07;2.03;;;;;;;8.34;100.00;99762.88;5089795;28;20236;-73
2023/05/09 02:08:20;;;;;;;2.60;1.60;;;;;;;8.41;100.00;99757.47;5089713;28;20226;-73
2023/05/09 02:10:48;;;;;;;1.80;1.23;;;;;;;8.33;100.00;99761.25;5090013;28;20228;-73
2023/05/09 02:13:15;;;;;;;2.93;1.87;;;;;;;8.35;100.00;99756.91;5089672;28;20736;-73
2023/05/09 02:15:43;;;;;;;1.63;1.47;;;;;;;8.37;100.00;99751.69;5089878;28;20202;-74
2023/05/09 02:18:09;;;;;;;2.23;1.70;;;;;;;8.25;100.00;99753.16;5089502;28;20249;-73
2023/05/09 02:20:38;;;;;;;2.17;1.83;;;;;;;8.39;100.00;99760.94;5089656;28;20244;-73
2023/05/09 02:23:05;;;;;;;1.90;1.77;;;;;;;8.47;100.00;99757.19;5089591;28;20233;-73
2023/05/09 02:25:33;;;;;;;1.53;1.43;;;;;;;8.32;100.00;99757.06;5092158;28;20237;-73
2023/05/09 02:28:00;;;;;;;2.20;1.67;;;;;;;8.35;100.00;99763.72;5093647;28;20217;-73
2023/05/09 02:30:33;;;;;;;3.13;1.90;;;;;;;8.32;100.00;99764.69;5093735;28;20189;-73
2023/05/09 02:33:04;;;;;;;1.57;1.47;;;;;;;8.42;100.00;99762.50;5093794;28;20218;-73
2023/05/09 02:35:31;;;;;;;1.93;1.50;;;;;;;8.51;100.00;99761.22;5094043;28;20398;-73
2023/05/09 02:38:00;;;;;;;2.40;1.80;;;;;;;8.41;100.00;99770.22;5093582;28;20222;-74
2023/05/09 02:40:28;;;;;;;1.70;1.43;;;;;;;8.38;100.00;99769.50;5093487;28;20240;-73
2023/05/09 02:42:55;;;;;;;1.60;1.47;;;;;;;8.33;100.00;99768.06;5093574;28;20698;-73
2023/05/09 02:45:21;;;;;;;4.33;1.77;;;;;;;8.42;100.00;99769.34;5093578;28;20710;-72
2023/05/09 02:47:48;;;;;;;2.77;1.70;;;;;;;8.36;100.00;99780.66;5093159;28;20217;-73
2023/05/09 02:50:15;;;;;;;2.37;1.47;;;;;;;8.27;100.00;99781.13;5093606;28;20689;-73
2023/05/09 02:52:42;;;;;;;1.90;1.53;;;;;;;8.34;100.00;99777.34;5093364;28;20645;-72
2023/05/09 02:55:10;;;;;;;3.67;1.97;;;;;;;8.30;100.00;99780.97;5093415;28;20197;-73
2023/05/09 02:57:37;;;;;;;2.27;1.90;;;;;;;8.39;100.00;99778.78;5092972;28;20198;-73
2023/05/09 03:00:07;;;;;;;1.90;1.20;;;;;;;8.34;100.00;99785.81;5093348;28;20202;-73
2023/05/09 03:02:34;;;;;;;8.93;2.10;;;;;;;8.32;100.00;99790.19;5093328;28;20202;-73
2023/05/09 03:05:01;;;;;;;1.80;1.70;;;;;;;8.39;100.00;99790.72;5093175;28;20669;-72
2023/05/09 03:07:28;;;;;;;3.13;2.23;;;;;;;8.32;100.00;99792.72;5092797;28;20198;-73
2023/05/09 03:09:55;;;;;;;4.63;1.73;;;;;;;8.21;100.00;99791.63;5093270;28;20209;-73
2023/05/09 03:12:24;;;;;;;2.57;1.57;;;;;;;8.30;100.00;99796.25;5092985;28;20681;-73
2023/05/09 03:14:50;;;;;;;2.23;2.00;;;;;;;8.30;100.00;99802.16;5092857;28;20210;-72
2023/05/09 03:17:20;;;;;;;1.97;1.40;;;;;;;8.33;100.00;99796.91;5092847;28;20201;-73
2023/05/09 03:19:47;;;;;;;1.20;1.07;;;;;;;8.35;100.00;99804.50;5093285;28;20201;-73
2023/05/09 03:22:13;;;;;;;1.77;1.30;;;;;;;8.21;100.00;99807.72;5092466;28;20194;-72
2023/05/09 03:24:40;;;;;;;3.13;2.00;;;;;;;8.28;100.00;99814.16;5092616;28;20221;-72
2023/05/09 03:27:07;;;;;;;1.13;0.90;;;;;;;8.31;100.00;99806.34;5092570;28;20234;-73
2023/05/09 03:29:35;;;;;;;1.63;1.53;;;;;;;8.29;100.00;99808.16;5092787;28;20229;-72
2023/05/09 03:32:02;;;;;;;4.33;1.83;;;;;;;8.25;100.00;99814.31;5092384;28;20209;-74
2023/05/09 03:34:29;;;;;;;1.47;1.37;;;;;;;8.33;100.00;99806.28;5092654;28;20225;-73
2023/05/09 03:36:56;;;;;;;2.27;1.43;;;;;;;8.26;100.00;99812.56;5091764;28;20205;-73
2023/05/09 03:39:23;;;;;;;1.47;1.00;;;;;;;8.07;100.00;99805.06;5092394;28;20225;-73
2023/05/09 03:41:49;;;;;;;1.47;1.17;;;;;;;8.11;100.00;99809.91;5092505;28;20209;-73
2023/05/09 03:44:16;;;;;;;1.70;1.27;;;;;;;8.10;100.00;99810.00;5092506;28;20244;-73
2023/05/09 03:46:45;;;;;;;2.73;1.53;;;;;;;8.09;100.00;99818.53;5092521;28;20753;-73
2023/05/09 03:49:12;;;;;;;1.43;1.27;;;;;;;8.18;100.00;99812.16;5092086;28;20225;-73
2023/05/09 03:51:39;;;;;;;1.47;1.37;;;;;;;8.21;100.00;99817.91;5092411;28;20635;-73
2023/05/09 03:54:06;;;;;;;2.20;1.70;;;;;;;8.15;100.00;99818.25;5092257;28;20226;-72
2023/05/09 03:56:32;;;;;;;2.37;1.73;;;;;;;8.13;100.00;99807.28;5091843;28;20674;-72
2023/05/09 03:58:59;;;;;;;1.50;1.40;;;;;;;8.11;100.00;99816.72;5092192;28;20704;-73
2023/05/09 04:01:26;;;;;;;1.50;1.27;;;;;;;8.06;100.00;99823.78;5092006;28;20202;-73
2023/05/09 04:03:56;;;;;;;2.67;2.13;;;;;;;8.12;100.00;99823.47;5092085;28;20226;-73
2023/05/09 04:06:23;;;;;;;1.53;1.33;;;;;;;8.08;100.00;99824.53;5091913;28;20230;-73
2023/05/09 04:08:50;;;;;;;3.10;1.57;;;;;;;8.10;100.00;99825.28;5091915;28;20666;-73
2023/05/09 04:11:17;;;;;;;2.00;1.80;;;;;;;8.08;100.00;99822.78;5092046;28;20209;-73
2023/05/09 04:13:43;;;;;;;1.77;1.40;;;;;;;8.09;100.00;99823.66;5091923;28;20222;-73
2023/05/09 04:16:10;;;;;;;2.57;1.77;;;;;;;8.10;100.00;99826.09;5091933;28;20209;-73
2023/05/09 04:18:38;;;;;;;3.53;2.20;;;;;;;8.07;100.00;99825.44;5091776;28;20217;-73
2023/05/09 04:21:06;;;;;;;1.67;1.57;;;;;;;8.16;100.00;99819.88;5091715;28;20347;-73
2023/05/09 04:23:33;;;;;;;2.40;1.63;;;;;;;8.22;100.00;99828.94;5091710;28;20228;-73
2023/05/09 04:26:01;;;;;;;1.43;1.33;;;;;;;8.20;100.00;99823.91;5091439;28;20733;-73
2023/05/09 04:28:28;;;;;;;3.13;2.40;;;;;;;8.28;100.00;99829.44;5091438;28;20221;-73
2023/05/09 04:30:55;;;;;;;2.57;1.77;;;;;;;8.28;100.00;99829.44;5091464;28;20205;-73
2023/05/09 04:33:23;;;;;;;1.63;1.50;;;;;;;8.18;100.00;99833.38;5091510;28;20229;-73
2023/05/09 04:35:49;;;;;;;2.50;1.27;;;;;;;8.25;100.00;99844.06;5091380;28;20243;-73
2023/05/09 04:38:18;;;;;;;2.20;1.57;;;;;;;8.29;100.00;99838.75;5091379;28;20229;-73
2023/05/09 04:40:45;;;;;;;1.07;0.90;;;;;;;8.33;100.00;99837.66;5091413;28;20201;-73
2023/05/09 04:43:11;;;;;;;1.83;1.67;;;;;;;8.25;100.00;99839.78;5091158;28;20225;-74
2023/05/09 04:45:38;;;;;;;1.70;1.37;;;;;;;8.28;100.00;99852.38;5091362;28;20609;-74
2023/05/09 04:48:05;;;;;;;1.33;1.23;;;;;;;8.21;100.00;99862.97;5089938;28;20245;-73
2023/05/09 04:50:32;;;;;;;1.50;1.40;;;;;;;8.26;100.00;99854.19;5091063;28;20216;-73
2023/05/09 04:52:59;;;;;;;2.10;1.90;;;;;;;8.33;100.00;99857.25;5090824;28;20714;-74
2023/05/09 04:55:27;;;;;;;1.43;1.33;;;;;;;8.38;100.00;99851.03;5091058;28;20700;-73
2023/05/09 04:57:54;;;;;;;1.50;1.40;;;;;;;8.28;100.00;99860.00;5090804;28;20213;-73
2023/05/09 05:00:20;;;;;;;1.87;1.60;;;;;;;8.28;100.00;99864.28;5090994;28;20201;-73
2023/05/09 05:02:47;;;;;;;1.83;1.43;;;;;;;8.39;100.00;99859.50;5090757;28;20725;-73
2023/05/09 05:05:14;;;;;;;1.83;1.57;;;;;;;8.39;100.00;99856.97;5090872;28;20198;-73
2023/05/09 05:07:41;;;;;;;1.80;1.70;;;;;;;8.45;100.00;99853.28;5090408;28;20244;-73
2023/05/09 05:10:09;;;;;;;1.70;1.60;;;;;;;8.33;100.00;99868.25;5090988;28;20194;-74
2023/05/09 05:12:37;;;;;;;1.20;1.13;;;;;;;8.33;100.00;99864.88;5090467;28;20212;-73
2023/05/09 05:15:04;;;;;;;1.57;1.23;;;;;;;8.35;100.00;99866.44;5090846;28;20601;-73
2023/05/09 05:17:31;;;;;;;1.43;1.33;;;;;;;8.35;100.00;99861.34;5090324;28;20194;-73
2023/05/09 05:19:58;;;;;;;2.83;2.10;;;;;;;8.41;100.00;99854.31;5090570;28;20201;-73
2023/05/09 05:22:25;;;;;;;2.37;2.00;;;;;;;8.42;100.00;99861.06;5090250;28;20208;-73
2023/05/09 05:24:51;;;;;;;3.93;1.90;;;;;;;8.39;100.00;99862.88;5090664;28;20224;-74
2023/05/09 05:27:18;;;;;;;2.67;2.20;;;;;;;8.46;100.00;99862.56;5090480;28;20241;-73
2023/05/09 05:29:46;;;;;;;1.90;1.40;;;;;;;8.46;100.00;99862.56;5090436;28;20225;-73
2023/05/09 05:32:13;;;;;;;2.27;1.63;;;;;;;8.36;100.00;99862.19;5090275;28;20206;-73
2023/05/09 05:34:40;;;;;;;2.07;1.87;;;;;;;8.52;100.00;99867.34;5090471;28;20226;-73
2023/05/09 05:37:07;;;;;;;6.37;2.20;;;;;;;8.44;100.00;99864.38;5090174;28;20198;-73
2023/05/09 05:39:33;;;;;;;2.37;1.73;;;;;;;8.42;100.00;99855.97;5090327;28;20218;-73
2023/05/09 05:42:00;;;;;;;2.23;1.53;;;;;;;8.38;100.00;99861.22;5089988;28;20197;-73
2023/05/09 05:44:27;;;;;;;4.57;2.50;;;;;;;8.57;100.00;99866.19;5090426;28;20253;-73
2023/05/09 05:46:55;;;;;;;2.30;1.90;;;;;;;8.59;100.00;99874.59;5090114;28;20232;-74
2023/05/09 05:49:23;;;;;;;2.17;1.87;;;;;;;8.57;100.00;99876.41;5089958;28;20240;-73
2023/05/09 05:51:50;;;;;;;2.70;2.03;;;;;;;8.49;100.00;99872.59;5090104;28;20197;-74
2023/05/09 05:54:17;;;;;;;1.83;1.00;;;;;;;8.55;100.00;99867.19;5090199;28;20634;-74
2023/05/09 05:56:44;;;;;;;1.53;1.20;;;;;;;8.59;100.00;99873.78;5090242;28;20201;-74
2023/05/09 05:59:11;;;;;;;2.70;1.80;;;;;;;8.53;100.00;99871.56;5089817;28;20229;-73
2023/05/09 06:01:37;;;;;;;2.53;1.83;;;;;;;8.58;100.00;99877.22;5090066;28;20230;-73
2023/05/09 06:04:06;;;;;;;2.73;1.93;;;;;;;8.52;100.00;99872.44;5089921;28;20221;-73
2023/05/09 06:06:33;;;;;;;2.33;1.77;;;;;;;8.43;100.00;99883.09;5089675;28;20233;-73
2023/05/09 06:09:00;;;;;;;1.73;1.33;;;;;;;8.50;100.00;99879.34;5089963;28;20709;-74
2023/05/09 06:11:26;;;;;;;2.80;1.57;;;;;;;8.44;100.00;99879.66;5089637;28;20216;-75
2023/05/09 06:13:53;;;;;;;2.97;2.23;;;;;;;8.61;100.00;99877.09;5090120;28;20601;-74
2023/05/09 06:16:20;;;;;;;2.13;1.37;;;;;;;8.52;100.00;99877.53;5089879;28;20217;-74
2023/05/09 06:18:47;;;;;;;1.40;1.00;;;;;;;8.32;100.00;99875.94;5089945;28;20229;-73
2023/05/09 06:21:15;;;;;;;2.23;1.77;;;;;;;8.49;100.00;99877.69;5089724;28;20205;-73
2023/05/09 06:23:42;;;;;;;1.90;1.53;;;;;;;8.46;100.00;99875.28;5089917;28;20632;-74
2023/05/09 06:26:09;;;;;;;1.57;1.47;;;;;;;8.47;100.00;99876.97;5089652;28;20198;-74
2023/05/09 06:28:36;;;;;;;2.13;1.50;;;;;;;8.50;100.00;99879.34;5089713;28;20225;-73
2023/05/09 06:31:03;;;;;;;2.23;1.53;;;;;;;8.47;100.00;99885.44;5089472;28;20194;-73
2023/05/09 06:33:30;;;;;;;1.87;1.70;;;;;;;8.48;100.00;99884.50;5089475;28;20229;-74
2023/05/09 06:35:56;;;;;;;1.70;1.60;;;;;;;8.44;100.00;99879.66;5089371;28;20197;-74
2023/05/09 06:38:25;;;;;;;1.73;1.50;;;;;;;8.53;100.00;99879.19;5089364;28;20233;-73
2023/05/09 06:40:51;;;;;;;1.73;1.60;;;;;;;8.58;100.00;99874.66;5089659;28;20225;-74
2023/05/09 06:43:18;;;;;;;1.57;1.43;;;;;;;8.70;100.00;99870.69;5089195;28;20663;-74
2023/05/09 06:45:45;;;;;;;2.60;1.87;;;;;;;8.64;100.00;99876.94;5089641;28;20198;-73
2023/05/09 06:48:12;;;;;;;3.00;2.07;;;;;;;8.70;100.00;99876.59;5089383;28;20242;-74
2023/05/09 06:50:39;;;;;;;1.60;1.20;;;;;;;8.56;100.00;99879.84;5089662;28;20632;-74
2023/05/09 06:53:06;;;;;;;5.73;2.00;;;;;;;8.71;100.00;99880.78;5089004;28;20214;-74
2023/05/09 06:55:34;;;;;;;3.07;1.73;;;;;;;8.64;100.00;99876.94;5089582;28;20206;-74
2023/05/09 06:58:01;;;;;;;2.13;1.80;;;;;;;8.83;100.00;99881.88;5089213;28;20221;-74
2023/05/09 07:00:27;;;;;;;1.27;1.17;;;;;;;8.65;100.00;99886.22;5089338;28;20204;-74
2023/05/09 07:02:54;;;;;;;3.20;2.13;;;;;;;8.65;100.00;99877.75;5089097;28;20721;-73
2023/05/09 07:05:21;;;;;;;1.67;1.47;;;;;;;8.77;100.00;99877.91;5089798;28;20198;-74
2023/05/09 07:07:48;;;;;;;2.00;1.57;;;;;;;8.74;100.00;99888.28;5089057;28;20244;-74
2023/05/09 07:10:15;;;;;;;1.77;1.67;;;;;;;8.81;100.00;99883.66;5089989;28;20206;-74
2023/05/09 07:12:43;;;;;;;2.13;1.43;;;;;;;8.86;100.00;99880.91;5093315;28;20233;-75
2023/05/09 07:15:10;;;;;;;2.70;1.97;;;;;;;8.94;100.00;99883.88;5093235;28;20198;-74
2023/05/09 07:17:37;;;;;;;2.17;1.67;;;;;;;8.93;100.00;99879.66;5093104;28;20233;-74
2023/05/09 07:20:05;;;;;;;1.87;1.73;;;;;;;8.95;100.00;99875.31;5093239;28;20202;-74
2023/05/09 07:22:33;;;;;;;2.63;1.90;;;;;;;8.87;100.00;99877.44;5092830;28;20244;-74
2023/05/09 07:24:59;;;;;;;2.60;2.40;;;;;;;9.02;100.00;99877.47;5093200;28;20206;-74
2023/05/09 07:27:26;;;;;;;1.63;1.33;;;;;;;8.97;100.00;99886.25;5092626;28;20226;-74
2023/05/09 07:29:54;;;;;;;1.80;1.40;;;;;;;8.89;100.00;99880.72;5092626;28;20198;-75
2023/05/09 07:32:21;;;;;;;5.43;2.00;;;;;;;8.99;100.00;99879.38;5092519;28;20201;-74
2023/05/09 07:34:48;;;;;;;2.50;2.03;;;;;;;8.96;100.00;99882.03;5092569;28;20214;-74
2023/05/09 07:37:15;;;;;;;2.87;1.40;;;;;;;9.04;100.00;99880.72;5092414;28;20198;-74
2023/05/09 07:39:42;;;;;;;2.70;1.70;;;;;;;8.97;100.00;99893.91;5092635;28;20252;-74
2023/05/09 07:42:09;;;;;;;2.47;2.00;;;;;;;9.02;100.00;99891.94;5092366;28;20661;-74
2023/05/09 07:44:36;;;;;;;2.83;1.60;;;;;;;9.12;100.00;99882.88;5092455;28;20221;-73
2023/05/09 07:47:05;;;;;;;2.27;1.57;;;;;;;9.02;100.00;99891.94;5092252;28;20307;-74
2023/05/09 07:49:31;;;;;;;2.37;1.90;;;;;;;9.14;100.00;99886.19;5092689;28;20222;-74
2023/05/09 07:51:58;;;;;;;3.47;1.93;;;;;;;9.15;100.00;99887.00;5092032;28;20291;-74
2023/05/09 07:54:25;;;;;;;2.23;1.43;;;;;;;9.21;100.00;99876.47;5092270;28;20602;-74
2023/05/09 07:56:52;;;;;;;2.63;2.10;;;;;;;9.25;100.00;99881.34;5092424;28;20216;-74
2023/05/09 07:59:19;;;;;;;2.33;2.10;;;;;;;9.06;100.00;99888.31;5092293;28;20229;-74
2023/05/09 08:01:46;;;;;;;4.30;2.53;;;;;;;9.21;100.00;99876.47;5091836;28;20713;-74
2023/05/09 08:04:14;;;;;;;1.93;1.57;;;;;;;9.33;100.00;99885.19;5092137;28;20229;-74
2023/05/09 08:06:41;;;;;;;2.13;1.67;;;;;;;9.32;100.00;99888.66;5091841;28;20673;-73
2023/05/09 08:09:07;;;;;;;2.07;1.70;;;;;;;9.44;100.00;99890.53;5092270;28;20226;-75
2023/05/09 08:11:35;;;;;;;2.63;1.97;;;;;;;9.39;100.00;99889.97;5091412;28;20214;-75
2023/05/09 08:14:02;;;;;;;2.40;1.97;;;;;;;9.52;100.00;99896.06;5091923;28;20578;-74
2023/05/09 08:16:29;;;;;;;2.10;1.73;;;;;;;9.49;100.00;99896.22;5091561;28;20209;-75
2023/05/09 08:18:55;;;;;;;3.93;2.70;;;;;;;9.48;100.00;99894.56;5091765;28;20218;-75
2023/05/09 08:21:24;;;;;;;3.97;2.20;;;;;;;9.66;100.00;99891.00;5091749;28;20213;-75
2023/05/09 08:23:51;;;;;;;3.50;2.20;;;;;;;9.55;100.00;99900.16;5091823;28;20218;-74
2023/05/09 08:26:18;;;;;;;2.60;1.83;;;;;;;9.55;100.00;99900.16;5091513;28;20350;-74
2023/05/09 08:28:45;;;;;;;2.73;2.37;;;;;;;9.59;100.00;99907.56;5091635;28;20264;-74
2023/05/09 08:31:12;;;;;;;3.53;2.27;;;;;;;9.63;100.00;99900.53;5091440;28;20194;-75
2023/05/09 08:33:39;;;;;;;2.33;2.13;;;;;;;9.63;100.00;99893.72;5091722;28;20257;-75
2023/05/09 08:36:06;;;;;;;3.87;3.00;;;;;;;9.68;100.00;99901.13;5091181;28;20197;-75
2023/05/09 08:38:36;;;;;;;2.60;2.20;;;;;;;9.71;100.00;99901.75;5091347;28;20701;-74
2023/05/09 08:41:03;;;;;;;3.77;2.57;;;;;;;9.67;100.00;99900.31;5091252;28;20243;-74
2023/05/09 08:43:30;;;;;;;4.60;2.33;;;;;;;9.74;100.00;99898.22;5091191;28;20214;-74
2023/05/09 08:46:00;;;;;;;4.73;2.53;;;;;;;9.84;100.00;99896.81;5091557;28;20229;-75
2023/05/09 08:48:28;;;;;;;2.53;1.63;;;;;;;9.77;100.00;99899.78;5090984;28;20229;-74
2023/05/09 08:50:56;;;;;;;3.67;2.07;;;;;;;9.81;100.00;99903.84;5091214;28;20198;-75
2023/05/09 08:53:23;;;;;;;3.70;2.03;;;;;;;9.86;100.00;99904.38;5090885;28;20735;-74
2023/05/09 08:55:52;;;;;;;4.50;2.60;;;;;;;9.82;100.00;99900.34;5090872;28;20217;-74
2023/05/09 08:58:21;;;;;;;3.57;2.10;;;;;;;9.95;100.00;99909.81;5091028;28;20245;-74
2023/05/09 09:00:50;;;;;;;2.33;2.10;;;;;;;9.92;100.00;99902.31;5091286;28;20197;-74
2023/05/09 09:03:18;;;;;;;5.13;3.00;;;;;;;9.94;100.00;99912.44;5090576;28;20209;-74
2023/05/09 09:05:46;;;;;;;2.13;1.93;;;;;;;10.13;100.00;99918.16;5091326;28;20354;-74
2023/05/09 09:08:14;;;;;;;5.80;2.57;;;;;;;10.19;100.00;99917.81;5090767;28;20699;-74
2023/05/09 09:10:45;;;;;;;3.80;2.43;;;;;;;10.30;100.00;99913.84;5090868;28;20224;-75
2023/05/09 09:13:15;;;;;;;5.90;2.63;;;;;;;10.37;100.00;99915.13;5090532;28;20229;-74
2023/05/09 09:15:44;;;;;;;5.30;3.50;;;;;;;10.44;100.00;99921.50;5090967;28;20623;-74
2023/05/09 09:18:16;;;;;;;2.80;2.57;;;;;;;10.54;100.00;99914.16;5090397;28;20240;-75
2023/05/09 09:20:48;;;;;;;3.67;2.30;;;;;;;10.62;100.00;99915.34;5090822;28;20580;-74
2023/05/09 09:23:19;;;;;;;3.43;2.40;;;;;;;10.69;100.00;99920.91;5090322;28;20213;-74
2023/05/09 09:25:46;;;;;;;4.53;3.03;;;;;;;10.68;100.00;99919.28;5090603;28;20258;-74
2023/05/09 09:28:15;;;;;;;5.83;3.93;;;;;;;10.70;100.00;99921.72;5090256;28;20691;-75
2023/05/09 09:30:47;;;;;;;3.40;2.93;;;;;;;10.68;100.00;99929.50;5090277;28;20198;-74
2023/05/09 09:33:20;;;;;;;4.40;2.87;;;;;;;10.60;100.00;99932.50;5089630;28;20218;-75
2023/05/09 09:35:49;;;;;;;4.97;3.40;;;;;;;10.70;100.00;99926.84;5090504;28;20202;-75
2023/05/09 09:38:17;;;;;;;5.03;3.47;;;;;;;10.58;100.00;99924.09;5090016;28;20246;-74
2023/05/09 09:40:49;;;;;;;4.20;3.13;;;;;;;10.60;100.00;99929.94;5090382;28;20639;-74
2023/05/09 09:43:17;;;;;;;5.27;3.00;;;;;;;10.60;100.00;99931.69;5089977;28;20218;-74
2023/05/09 09:45:49;;;;;;;5.67;4.03;;;;;;;10.59;100.00;99923.19;5090403;28;20651;-75
2023/05/09 09:48:16;;;;;;;5.30;3.80;;;;;;;10.55;100.00;99920.91;5089949;28;20618;-74
2023/05/09 09:50:42;;;;;;;5.90;3.97;;;;;;;10.73;100.00;99911.31;5090233;28;20262;-75
2023/05/09 09:53:09;;;;;;;6.50;4.07;;;;;;;10.74;100.00;99915.53;5089713;28;20232;-75
2023/05/09 09:55:36;;;;;;;5.67;3.77;;;;;;;10.84;100.00;99919.16;5090023;28;20628;-75
2023/05/09 09:58:03;;;;;;;5.50;3.80;;;;;;;11.02;100.00;99920.59;5089633;28;20228;-75
2023/05/09 10:00:31;;;;;;;7.03;3.73;;;;;;;11.06;100.00;99934.88;5089876;28;20202;-75
2023/05/09 10:02:59;;;;;;;7.37;3.57;;;;;;;10.98;100.00;99928.59;5089809;28;20218;-75
2023/05/09 10:05:28;;;;;;;14.23;4.20;;;;;;;11.01;100.00;99929.22;5090278;28;20243;-75
2023/05/09 10:07:56;;;;;;;3.97;2.80;;;;;;;11.10;100.00;99923.53;5089871;28;20272;-75
2023/05/09 10:10:25;;;;;;;5.80;4.10;;;;;;;11.17;100.00;99928.28;5090301;28;20244;-74
2023/05/09 10:12:56;;;;;;;6.23;4.17;;;;;;;11.17;100.00;99931.69;5089658;28;20616;-75
2023/05/09 10:15:23;;;;;;;4.47;3.27;;;;;;;11.23;100.00;99935.59;5089750;28;20643;-75
2023/05/09 10:17:54;;;;;;;5.73;3.93;;;;;;;11.37;100.00;99934.72;5089578;28;20221;-75
2023/05/09 10:20:21;;;;;;;5.10;3.80;;;;;;;11.48;100.00;99935.69;5090145;28;20201;-75
2023/05/09 10:22:49;;;;;;;4.80;3.33;;;;;;;11.62;100.00;99934.84;5089454;28;20225;-75
2023/05/09 10:25:20;;;;;;;6.23;3.60;;;;;;;11.60;100.00;99943.53;5089858;28;20198;-75
2023/05/09 10:27:47;;;;;;;5.67;3.47;;;;;;;11.55;100.00;99942.09;5089719;28;20229;-75
2023/05/09 10:30:18;;;;;;;7.03;3.87;;;;;;;11.65;100.00;99937.22;5090007;28;20202;-75
2023/05/09 10:32:54;;;;;;;6.87;3.40;;;;;;;11.91;100.00;99943.28;5089489;28;20221;-75
2023/05/09 10:35:29;;;;;;;10.40;4.20;;;;;;;11.88;100.00;99933.22;5089854;28;20665;-76
2023/05/09 10:37:57;;;;;;;6.80;3.53;;;;;;;11.95;100.00;99931.91;5089493;28;20214;-75
2023/05/09 10:40:24;;;;;;;5.47;3.70;;;;;;;11.95;100.00;99929.34;5089622;28;20202;-75
2023/05/09 10:42:51;;;;;;;4.37;3.60;;;;;;;11.95;100.00;99919.09;5089374;28;20214;-75
2023/05/09 10:45:19;;;;;;;5.33;3.33;;;;;;;12.02;100.00;99929.78;5090298;28;20596;-74
2023/05/09 10:47:48;;;;;;;3.90;2.83;;;;;;;12.29;100.00;99918.66;5093268;28;20229;-75
2023/05/09 10:50:17;;;;;;;3.67;2.83;;;;;;;12.30;100.00;99922.84;5093400;28;20292;-75
2023/05/09 10:53:04;;;;;;;6.60;3.57;;;;;;;12.45;100.00;99922.66;5093254;28;20214;-75
2023/05/09 10:55:36;;;;;;;4.33;3.07;;;;;;;12.42;100.00;99920.31;5093577;28;20202;-75
2023/05/09 10:58:19;;;;;;;4.73;3.10;;;;;;;12.52;100.00;99923.06;5093195;28;20217;-76
2023/05/09 11:00:47;;;;;;;3.77;2.70;;;;;;;12.52;100.00;99919.69;5093511;28;20233;-75
2023/05/09 11:03:17;;;;;;;3.90;2.67;;;;;;;12.47;100.00;99912.28;5092901;28;20764;-75
2023/05/09 11:05:45;;;;;;;5.27;2.90;;;;;;;12.72;100.00;99908.91;5093422;28;20202;-75
2023/05/09 11:08:23;;;;;;;3.40;2.70;;;;;;;12.88;100.00;99914.59;5092798;28;20241;-75
2023/05/09 11:10:51;;;;;;;4.23;2.77;;;;;;;12.95;100.00;99914.22;5093358;28;20271;-75
2023/05/09 11:13:23;;;;;;;3.53;2.67;;;;;;;13.16;100.00;99911.91;5092815;28;20236;-76
2023/05/09 11:16:11;;;;;;;5.87;3.43;;;;;;;13.18;100.00;99925.44;5093487;28;20644;-75
2023/05/09 11:18:51;;;;;;;5.97;2.97;;;;;;;13.36;100.00;99914.72;5092944;28;20221;-75
2023/05/09 11:21:20;;;;;;;4.77;2.97;;;;;;;13.47;100.00;99920.88;5092980;28;20238;-75
2023/05/09 11:23:48;;;;;;;3.90;2.90;;;;;;;13.29;100.00;99913.53;5092586;28;20222;-75
2023/05/09 11:26:16;;;;;;;3.50;2.53;;;;;;;13.45;100.00;99912.44;5092855;28;20194;-75
2023/05/09 11:28:53;;;;;;;3.73;2.83;;;;;;;13.57;100.00;99911.56;5092658;28;20739;-75
2023/05/09 11:31:20;;;;;;;3.50;2.60;;;;;;;13.49;100.00;99908.72;5092720;28;20225;-75
2023/05/09 11:33:53;;;;;;;3.53;2.40;;;;;;;13.63;100.00;99906.00;5092648;28;20216;-75
2023/05/09 11:36:30;;;;;;;3.13;2.23;;;;;;;13.58;100.00;99908.91;5092727;28;20284;-75